Time;durP1;ratioP1;P1;durP2;ratioP2;P2;SDS_P1;SDS_P2;PMS_P1;PMS_P2;Temp;Humidity;BMP_temperature;BMP_pressure;BME280_temperature;BME280_humidity;BME280_pressure;Samples;Min_cycle;Max_cycle;Signal;HPM_P1;HPM_P2
2024/01/16 00:00:34;;;;;;;78.75;49.40;;;;;;;0.41;100.00;98414.41;5010748;28;20040;-80
2024/01/16 00:02:59;;;;;;;81.40;49.03;;;;;;;0.41;100.00;98417.00;5010323;28;20030;-81
2024/01/16 00:05:25;;;;;;;76.75;49.30;;;;;;;0.32;100.00;98422.84;5012758;28;20038;-82
2024/01/16 00:07:50;;;;;;;73.30;48.20;;;;;;;0.32;100.00;98425.44;5010799;28;20227;-82
2024/01/16 00:10:16;;;;;;;70.32;48.05;;;;;;;0.35;100.00;98425.22;5010539;28;20034;-82
2024/01/16 00:12:41;;;;;;;73.13;49.38;;;;;;;0.36;100.00;98416.50;5006800;28;20034;-81
2024/01/16 00:15:08;;;;;;;73.07;48.80;;;;;;;0.40;100.00;98415.38;5008559;28;20040;-80
2024/01/16 00:17:34;;;;;;;76.70;49.17;;;;;;;0.44;100.00;98433.31;5010362;28;20489;-80
2024/01/16 00:20:00;;;;;;;75.68;49.55;;;;;;;0.40;100.00;98437.91;5009424;28;20033;-80
2024/01/16 00:22:29;;;;;;;74.10;48.72;;;;;;;0.43;100.00;98432.47;5010265;28;20572;-80
2024/01/16 00:24:54;;;;;;;74.05;49.78;;;;;;;0.46;100.00;98439.25;5002914;28;20149;-79
2024/01/16 00:27:20;;;;;;;70.15;46.55;;;;;;;0.46;100.00;98447.03;5012937;28;20053;-81
2024/01/16 00:29:45;;;;;;;77.00;48.13;;;;;;;0.45;100.00;98445.34;5014552;28;20045;-81
2024/01/16 00:32:11;;;;;;;70.45;48.67;;;;;;;0.43;100.00;98437.66;5011545;28;20077;-81
2024/01/16 00:34:36;;;;;;;67.25;47.60;;;;;;;0.41;100.00;98440.38;5009661;28;20034;-80
2024/01/16 00:37:01;;;;;;;71.15;47.22;;;;;;;0.41;100.00;98434.38;5004627;28;20033;-80
2024/01/16 00:39:27;;;;;;;67.18;45.63;;;;;;;0.44;100.00;98443.69;5009703;28;20030;-80
2024/01/16 00:41:52;;;;;;;71.82;47.58;;;;;;;0.45;100.00;98447.94;5010401;28;20485;-80
2024/01/16 00:44:18;;;;;;;66.43;46.22;;;;;;;0.41;100.00;98455.13;5009761;28;20038;-80
2024/01/16 00:46:43;;;;;;;77.25;48.92;;;;;;;0.41;100.00;98455.13;5010372;28;20128;-78
2024/01/16 00:49:09;;;;;;;72.88;50.10;;;;;;;0.37;100.00;98453.66;5008973;28;20462;-79
2024/01/16 00:51:35;;;;;;;71.40;47.53;;;;;;;0.37;100.00;98454.50;5009952;28;20066;-79
2024/01/16 00:54:00;;;;;;;66.07;48.08;;;;;;;0.40;100.00;98459.50;5009210;28;20049;-78
2024/01/16 00:56:27;;;;;;;75.22;48.78;;;;;;;0.42;100.00;98467.16;5009602;28;20032;-80
2024/01/16 00:58:53;;;;;;;76.57;49.22;;;;;;;0.41;100.00;98463.72;5009766;28;20026;-79
2024/01/16 01:01:19;;;;;;;73.28;48.90;;;;;;;0.34;100.00;98459.91;5009446;28;20114;-79
2024/01/16 01:03:45;;;;;;;70.68;48.17;;;;;;;0.30;100.00;98462.81;5008999;28;20042;-78
2024/01/16 01:06:11;;;;;;;72.47;48.55;;;;;;;0.28;100.00;98470.72;5010252;28;20213;-77
2024/01/16 01:08:37;;;;;;;73.97;48.92;;;;;;;0.21;100.00;98463.44;5009335;28;20144;-79
2024/01/16 01:11:02;;;;;;;71.95;47.95;;;;;;;0.16;100.00;98468.97;5011583;28;20044;-78
2024/01/16 01:13:28;;;;;;;71.40;49.20;;;;;;;0.11;100.00;98468.44;5010853;28;20080;-78
2024/01/16 01:15:54;;;;;;;66.07;48.45;;;;;;;0.09;100.00;98475.50;5013337;28;20038;-78
2024/01/16 01:18:19;;;;;;;70.60;48.45;;;;;;;0.04;100.00;98480.16;5013497;28;20034;-79
2024/01/16 01:20:45;;;;;;;72.57;50.22;;;;;;;-0.05;100.00;98480.75;5012211;28;20030;-78
2024/01/16 01:23:10;;;;;;;75.93;50.47;;;;;;;-0.13;100.00;98480.47;5013060;28;20038;-78
2024/01/16 01:25:36;;;;;;;78.88;52.17;;;;;;;-0.18;100.00;98479.94;5013270;28;20113;-78
2024/01/16 01:28:01;;;;;;;75.80;52.13;;;;;;;-0.20;100.00;98484.38;5012768;28;20104;-78
2024/01/16 01:30:26;;;;;;;83.55;53.15;;;;;;;-0.24;100.00;98488.13;5013775;28;20367;-78
2024/01/16 01:32:52;;;;;;;85.68;55.97;;;;;;;-0.26;100.00;98484.78;5013665;28;20041;-79
2024/01/16 01:35:19;;;;;;;84.07;53.60;;;;;;;-0.27;100.00;98501.28;5014717;28;20127;-79
2024/01/16 01:37:46;;;;;;;87.20;54.45;;;;;;;-0.24;100.00;98503.69;5012983;28;20022;-79
2024/01/16 01:40:12;;;;;;;81.13;54.85;;;;;;;-0.22;100.00;98496.59;5012608;28;20057;-78
2024/01/16 01:42:40;;;;;;;77.65;52.88;;;;;;;-0.17;100.00;98505.75;5011397;28;20033;-78
2024/01/16 01:45:06;;;;;;;82.20;54.20;;;;;;;-0.11;100.00;98494.97;5025386;28;20394;-78
2024/01/16 01:47:32;;;;;;;85.20;53.25;;;;;;;-0.11;100.00;98499.31;5012261;28;20034;-78
2024/01/16 01:49:58;;;;;;;85.28;53.83;;;;;;;-0.18;100.00;98509.28;5012398;28;20450;-79
2024/01/16 01:52:23;;;;;;;78.15;52.80;;;;;;;-0.19;100.00;98517.16;5012683;28;20048;-77
2024/01/16 01:54:51;;;;;;;84.57;52.88;;;;;;;-0.16;100.00;98511.75;5012651;28;20459;-78
2024/01/16 01:57:17;;;;;;;81.65;53.00;;;;;;;-0.04;100.00;98513.53;5027393;28;20065;-78
2024/01/16 01:59:42;;;;;;;78.93;52.53;;;;;;;0.03;100.00;98516.56;5006614;28;20402;-79
2024/01/16 02:02:08;;;;;;;77.80;51.95;;;;;;;0.09;100.00;98531.72;5010590;28;20097;-79
2024/01/16 02:04:34;;;;;;;88.53;54.85;;;;;;;0.10;100.00;98523.84;5007392;28;20041;-79
2024/01/16 02:07:00;;;;;;;74.43;51.22;;;;;;;0.12;100.00;98531.53;5012885;28;20041;-79
2024/01/16 02:09:25;;;;;;;76.40;53.25;;;;;;;0.18;100.00;98526.72;5013017;28;20038;-78
2024/01/16 02:11:51;;;;;;;81.75;52.95;;;;;;;0.18;100.00;98531.91;5012838;28;20130;-79
2024/01/16 02:14:17;;;;;;;74.70;50.13;;;;;;;0.17;100.00;98539.84;5011656;28;20037;-79
2024/01/16 02:16:46;;;;;;;81.22;51.80;;;;;;;0.14;100.00;98546.03;5008366;28;20069;-79
2024/01/16 02:19:12;;;;;;;79.47;51.22;;;;;;;-0.01;100.00;98547.91;5011720;28;20152;-78
2024/01/16 02:21:48;;;;;;;72.35;49.47;;;;;;;-0.09;100.00;98544.13;5007888;28;20459;-79
2024/01/16 02:24:16;;;;;;;72.45;51.35;;;;;;;-0.20;100.00;98542.25;5011883;28;20109;-79
2024/01/16 02:26:42;;;;;;;74.93;48.95;;;;;;;-0.33;100.00;98546.56;5012560;28;20516;-80
2024/01/16 02:29:08;;;;;;;73.03;50.58;;;;;;;-0.36;100.00;98551.13;5007717;28;20042;-80
2024/01/16 02:31:34;;;;;;;70.32;48.95;;;;;;;-0.38;100.00;98545.22;5011981;28;20497;-80
2024/01/16 02:34:00;;;;;;;73.85;51.05;;;;;;;-0.50;100.00;98560.63;5017069;28;20049;-80
2024/01/16 02:36:26;;;;;;;75.28;51.80;;;;;;;-0.57;100.00;98561.94;5007128;28;20034;-80
2024/01/16 02:38:52;;;;;;;77.35;51.80;;;;;;;-0.50;100.00;98559.78;5011645;28;20395;-80
2024/01/16 02:41:18;;;;;;;73.47;50.90;;;;;;;-0.42;100.00;98560.13;5011351;28;20022;-80
2024/01/16 02:43:43;;;;;;;80.55;51.53;;;;;;;-0.51;100.00;98564.13;5011928;28;20148;-81
2024/01/16 02:46:09;;;;;;;77.10;51.13;;;;;;;-0.39;100.00;98559.94;5011298;28;20053;-80
2024/01/16 02:48:35;;;;;;;81.50;50.00;;;;;;;-0.37;100.00;98570.22;5011560;28;20113;-80
2024/01/16 02:51:01;;;;;;;84.40;51.28;;;;;;;-0.38;100.00;98565.94;5010949;28;20062;-79
2024/01/16 02:53:28;;;;;;;87.75;52.83;;;;;;;-0.48;100.00;98573.50;5007864;28;20161;-80
2024/01/16 02:55:54;;;;;;;106.80;53.40;;;;;;;-0.86;100.00;98574.13;5025226;28;20030;-79
2024/01/16 02:58:21;;;;;;;93.60;52.55;;;;;;;-0.84;100.00;98581.81;5011725;28;20092;-78
2024/01/16 03:00:46;;;;;;;81.38;51.50;;;;;;;-0.69;100.00;98582.59;5012708;28;20041;-79
2024/01/16 03:03:12;;;;;;;85.57;52.83;;;;;;;-0.61;100.00;98578.63;5016437;28;20034;-79
2024/01/16 03:05:37;;;;;;;83.60;51.53;;;;;;;-0.56;100.00;98586.94;5014831;28;20121;-80
2024/01/16 03:08:03;;;;;;;76.32;49.35;;;;;;;-0.53;100.00;98597.06;5008410;28;20046;-79
2024/01/16 03:10:29;;;;;;;74.10;48.20;;;;;;;-0.67;100.00;98604.91;5011611;28;20062;-79
2024/01/16 03:12:54;;;;;;;86.70;51.55;;;;;;;-0.82;100.00;98605.84;5011462;28;20087;-80
2024/01/16 03:15:20;;;;;;;86.80;52.15;;;;;;;-0.72;100.00;98614.72;5011224;28;20076;-80
2024/01/16 03:17:47;;;;;;;80.95;50.25;;;;;;;-1.02;100.00;98608.84;5010102;28;20033;-79
2024/01/16 03:20:16;;;;;;;95.65;52.92;;;;;;;-1.13;100.00;98601.72;5009251;28;20065;-78
2024/01/16 03:22:42;;;;;;;101.68;54.08;;;;;;;-1.00;100.00;98612.19;5011256;28;20513;-79
2024/01/16 03:25:08;;;;;;;189.13;55.40;;;;;;;-1.38;100.00;98623.06;5010679;28;20030;-79
2024/01/16 03:27:34;;;;;;;99.95;57.13;;;;;;;-1.21;100.00;98623.81;5008096;28;20034;-79
2024/01/16 03:30:01;;;;;;;131.07;56.45;;;;;;;-1.07;100.00;98629.84;5010525;28;20375;-79
2024/01/16 03:32:27;;;;;;;118.88;56.17;;;;;;;-1.13;100.00;98627.63;5009229;28;20058;-81
2024/01/16 03:34:53;;;;;;;123.78;58.70;;;;;;;-1.20;100.00;98636.69;5012009;28;20147;-79
2024/01/16 03:37:19;;;;;;;133.30;59.88;;;;;;;-1.20;100.00;98652.22;5004129;28;20051;-79
2024/01/16 03:39:45;;;;;;;110.53;60.25;;;;;;;-1.19;100.00;98650.44;5010601;28;20034;-78
2024/01/16 03:42:12;;;;;;;111.05;62.15;;;;;;;-1.16;100.00;98647.66;5010404;28;20042;-80
2024/01/16 03:44:41;;;;;;;93.85;60.03;;;;;;;-1.14;100.00;98651.84;5008265;28;20034;-77
2024/01/16 03:47:07;;;;;;;158.32;61.63;;;;;;;-1.07;100.00;98658.31;5010236;28;20038;-80
2024/01/16 03:49:33;;;;;;;170.10;59.33;;;;;;;-1.15;100.00;98654.50;5010074;28;20092;-78
2024/01/16 03:51:58;;;;;;;146.85;60.53;;;;;;;-1.16;100.00;98664.03;5007453;28;20034;-80
2024/01/16 03:54:24;;;;;;;137.27;62.50;;;;;;;-1.13;100.00;98663.03;5010282;28;20041;-80
2024/01/16 03:56:50;;;;;;;136.25;65.97;;;;;;;-1.03;100.00;98659.78;5010487;28;20037;-80
2024/01/16 03:59:16;;;;;;;152.88;66.00;;;;;;;-0.93;100.00;98660.91;5010209;28;20049;-78
2024/01/16 04:01:42;;;;;;;165.32;65.88;;;;;;;-0.84;100.00;98669.88;5009841;28;20509;-79
2024/01/16 04:04:08;;;;;;;138.10;66.32;;;;;;;-0.76;100.00;98662.44;5010514;28;20486;-79
2024/01/16 04:06:33;;;;;;;121.63;62.75;;;;;;;-0.72;100.00;98658.75;5014758;28;20113;-79
2024/01/16 04:09:00;;;;;;;156.02;63.25;;;;;;;-0.67;100.00;98669.69;5009183;28;20038;-79
2024/01/16 04:11:26;;;;;;;122.00;62.83;;;;;;;-0.66;100.00;98666.16;5010368;28;20045;-81
2024/01/16 04:13:51;;;;;;;113.28;60.63;;;;;;;-0.65;100.00;98665.25;4999486;28;20030;-80
2024/01/16 04:16:17;;;;;;;130.63;62.20;;;;;;;-0.60;100.00;98663.19;5000769;28;20058;-79
2024/01/16 04:18:43;;;;;;;116.00;59.72;;;;;;;-0.51;100.00;98679.91;5010523;28;20079;-80
2024/01/16 04:21:09;;;;;;;156.65;61.03;;;;;;;-0.54;100.00;98673.19;5008790;28;20065;-79
2024/01/16 04:23:34;;;;;;;101.07;60.63;;;;;;;-0.47;100.00;98684.81;5010556;28;20069;-80
2024/01/16 04:26:00;;;;;;;125.30;61.95;;;;;;;-0.36;100.00;98685.91;5025141;28;20113;-79
2024/01/16 04:28:25;;;;;;;110.07;61.55;;;;;;;-0.31;100.00;98686.47;5031745;28;20054;-79
2024/01/16 04:30:51;;;;;;;136.18;61.22;;;;;;;-0.25;100.00;98693.84;5030380;28;20120;-79
2024/01/16 04:33:16;;;;;;;100.72;59.67;;;;;;;-0.22;100.00;98698.84;5044737;28;20042;-78
2024/01/16 04:35:42;;;;;;;124.95;63.25;;;;;;;-0.17;100.00;98696.78;5037027;28;20046;-79
2024/01/16 04:38:07;;;;;;;112.63;59.50;;;;;;;-0.16;100.00;98698.44;5034255;28;20052;-79
2024/01/16 04:40:33;;;;;;;107.43;59.65;;;;;;;-0.13;100.00;98701.69;5022567;28;20390;-80
2024/01/16 04:42:59;;;;;;;113.75;57.65;;;;;;;-0.15;100.00;98700.94;5002138;28;20069;-80
2024/01/16 04:45:25;;;;;;;116.43;57.75;;;;;;;-0.12;100.00;98705.13;5009781;28;20048;-79
2024/01/16 04:47:50;;;;;;;115.75;56.53;;;;;;;-0.11;100.00;98722.31;5011420;28;20041;-79
2024/01/16 04:50:16;;;;;;;108.35;57.33;;;;;;;-0.18;100.00;98716.72;4999855;28;20038;-80
2024/01/16 04:52:41;;;;;;;102.97;57.80;;;;;;;-0.20;100.00;98717.72;4999774;28;20044;-79
2024/01/16 04:55:07;;;;;;;120.68;57.50;;;;;;;-0.20;100.00;98709.94;5009549;28;20030;-79
2024/01/16 04:57:33;;;;;;;104.40;57.28;;;;;;;-0.21;100.00;98710.88;5009881;28;20506;-79
2024/01/16 04:59:58;;;;;;;104.80;56.25;;;;;;;-0.19;100.00;98719.41;5024153;28;20057;-79
2024/01/16 05:02:24;;;;;;;101.85;55.42;;;;;;;-0.19;100.00;98729.78;5009306;28;20456;-80
2024/01/16 05:04:51;;;;;;;109.35;56.65;;;;;;;-0.20;100.00;98739.31;5010700;28;20046;-79
2024/01/16 05:07:19;;;;;;;112.72;56.22;;;;;;;-0.22;100.00;98735.13;5010420;28;20069;-79
2024/01/16 05:09:46;;;;;;;107.00;56.35;;;;;;;-0.19;100.00;98742.72;5009389;28;20030;-81
2024/01/16 05:12:12;;;;;;;111.15;56.78;;;;;;;-0.26;100.00;98750.06;4999799;28;20037;-80
2024/01/16 05:14:37;;;;;;;110.97;56.67;;;;;;;-0.29;100.00;98759.75;4998287;28;20042;-82
2024/01/16 05:17:03;;;;;;;97.72;55.05;;;;;;;-0.30;100.00;98752.94;5009016;28;20401;-82
2024/01/16 05:19:28;;;;;;;103.15;59.42;;;;;;;-0.27;100.00;98747.56;5009096;28;20441;-79
2024/01/16 05:21:54;;;;;;;107.82;59.10;;;;;;;-0.24;100.00;98744.78;5024307;28;20497;-78
2024/01/16 05:24:19;;;;;;;122.03;56.72;;;;;;;-0.24;100.00;98747.38;5010354;28;20060;-80
2024/01/16 05:26:45;;;;;;;150.52;57.30;;;;;;;-0.25;100.00;98750.91;5009134;28;20123;-80
2024/01/16 05:29:11;;;;;;;131.52;55.20;;;;;;;-0.31;100.00;98752.09;5009004;28;20041;-79
2024/01/16 05:31:43;;;;;;;144.73;58.60;;;;;;;-0.34;100.00;98767.00;5008709;28;20033;-80
2024/01/16 05:34:11;;;;;;;131.95;61.63;;;;;;;-0.33;100.00;98768.66;5008661;28;20041;-79
2024/01/16 05:36:37;;;;;;;100.88;58.90;;;;;;;-0.30;100.00;98769.31;5008874;28;20030;-79
2024/01/16 05:39:02;;;;;;;121.72;60.15;;;;;;;-0.27;100.00;98768.28;5008777;28;20056;-79
2024/01/16 05:41:33;;;;;;;143.23;59.72;;;;;;;-0.26;100.00;98759.59;5001267;28;20034;-79
2024/01/16 05:43:59;;;;;;;122.57;60.38;;;;;;;-0.30;100.00;98765.91;5016705;28;20117;-79
2024/01/16 05:46:24;;;;;;;102.63;59.63;;;;;;;-0.28;100.00;98771.81;5004090;28;20117;-79
2024/01/16 05:48:49;;;;;;;132.48;60.45;;;;;;;-0.26;100.00;98769.97;4998304;28;20022;-78
2024/01/16 05:51:15;;;;;;;93.68;58.22;;;;;;;-0.21;100.00;98770.50;5006522;28;20893;-80
2024/01/16 05:53:41;;;;;;;97.25;60.13;;;;;;;-0.18;100.00;98775.53;5011834;28;20037;-79
2024/01/16 05:56:07;;;;;;;117.18;60.13;;;;;;;-0.14;100.00;98774.41;5008934;28;20037;-78
2024/01/16 05:58:38;;;;;;;108.93;58.92;;;;;;;-0.14;100.00;98777.81;5012328;28;20045;-79
2024/01/16 06:01:06;;;;;;;96.57;58.78;;;;;;;-0.17;100.00;98779.75;5011775;28;20069;-77
2024/01/16 06:03:32;;;;;;;97.60;59.90;;;;;;;-0.14;100.00;98779.56;5012528;28;20437;-78
2024/01/16 06:05:58;;;;;;;153.88;61.47;;;;;;;-0.16;100.00;98784.84;5007903;28;20037;-78
2024/01/16 06:08:24;;;;;;;100.57;58.28;;;;;;;-0.13;100.00;98792.47;5012176;28;20057;-81
2024/01/16 06:10:51;;;;;;;97.28;57.13;;;;;;;-0.12;100.00;98803.66;5009164;28;20131;-75
2024/01/16 06:13:21;;;;;;;93.70;56.05;;;;;;;-0.13;100.00;98812.38;5008452;28;20405;-75
2024/01/16 06:15:47;;;;;;;119.85;56.42;;;;;;;-0.13;100.00;98818.38;5009228;28;20397;-72
2024/01/16 06:18:13;;;;;;;104.32;54.15;;;;;;;-0.14;100.00;98810.69;5009649;28;20121;-73
2024/01/16 06:20:38;;;;;;;145.45;56.00;;;;;;;-0.19;100.00;98807.56;5011501;28;20443;-75
2024/01/16 06:23:04;;;;;;;109.13;53.88;;;;;;;-0.15;100.00;98819.41;5011092;28;20094;-75
2024/01/16 06:25:29;;;;;;;107.88;53.45;;;;;;;-0.13;100.00;98818.38;5011860;28;20124;-76
2024/01/16 06:27:55;;;;;;;130.48;56.55;;;;;;;-0.21;100.00;98814.59;5009252;28;20025;-75
2024/01/16 06:30:22;;;;;;;103.72;57.72;;;;;;;-0.21;100.00;98819.78;5009997;28;20478;-76
2024/01/16 06:32:49;;;;;;;107.20;59.10;;;;;;;-0.17;100.00;98829.00;5010978;28;20042;-75
2024/01/16 06:35:15;;;;;;;110.88;61.63;;;;;;;-0.09;100.00;98830.22;5009807;28;20371;-76
2024/01/16 06:37:41;;;;;;;113.18;59.65;;;;;;;-0.20;100.00;98829.22;5012013;28;20030;-77
2024/01/16 06:40:07;;;;;;;108.63;58.80;;;;;;;-0.22;100.00;98823.28;5009840;28;20084;-76
2024/01/16 06:42:33;;;;;;;134.15;61.17;;;;;;;-0.29;100.00;98837.53;5014313;28;20034;-74
2024/01/16 06:44:58;;;;;;;129.38;60.40;;;;;;;-0.43;100.00;98852.19;5010421;28;20036;-75
2024/01/16 06:47:24;;;;;;;144.10;62.20;;;;;;;-0.71;100.00;98861.69;5010746;28;20026;-75
2024/01/16 06:49:49;;;;;;;127.75;62.78;;;;;;;-0.62;100.00;98864.56;5010270;28;20049;-75
2024/01/16 06:52:15;;;;;;;117.68;64.03;;;;;;;-0.52;100.00;98867.41;5010424;28;20030;-75
2024/01/16 06:54:40;;;;;;;137.05;66.28;;;;;;;-0.43;100.00;98875.50;5010436;28;20109;-76
2024/01/16 06:57:06;;;;;;;129.43;64.78;;;;;;;-0.38;100.00;98880.41;5010356;28;20442;-75
2024/01/16 06:59:32;;;;;;;110.78;63.58;;;;;;;-0.32;100.00;98884.41;5012424;28;20061;-74
2024/01/16 07:01:57;;;;;;;145.75;68.22;;;;;;;-0.54;100.00;98880.50;5006169;28;20030;-76
2024/01/16 07:04:23;;;;;;;116.60;64.13;;;;;;;-0.56;100.00;98892.69;5009651;28;20438;-75
2024/01/16 07:06:48;;;;;;;127.07;65.18;;;;;;;-0.39;100.00;98888.28;5010483;28;20030;-75
2024/01/16 07:09:15;;;;;;;135.00;63.80;;;;;;;-0.37;100.00;98891.63;5009428;28;20176;-75
2024/01/16 07:11:42;;;;;;;131.32;70.13;;;;;;;-0.31;100.00;98906.81;5010659;28;20116;-76
2024/01/16 07:14:09;;;;;;;126.18;65.30;;;;;;;-0.34;100.00;98912.16;5010872;28;20034;-77
2024/01/16 07:16:35;;;;;;;129.77;66.93;;;;;;;-0.32;100.00;98915.50;5010614;28;20065;-75
2024/01/16 07:19:02;;;;;;;133.52;68.95;;;;;;;-0.29;100.00;98923.09;5010812;28;20157;-75
2024/01/16 07:21:28;;;;;;;161.18;67.00;;;;;;;-0.47;100.00;98928.44;5009592;28;20030;-75
2024/01/16 07:23:54;;;;;;;142.60;63.55;;;;;;;-0.45;100.00;98928.34;5006225;28;20113;-75
2024/01/16 07:26:20;;;;;;;134.43;65.88;;;;;;;-0.41;100.00;98938.44;5002359;28;20100;-77
2024/01/16 07:28:47;;;;;;;134.98;64.95;;;;;;;-0.53;100.00;98936.56;5011091;28;20029;-76
2024/01/16 07:31:13;;;;;;;149.82;68.13;;;;;;;-0.52;100.00;98940.81;5004847;28;20040;-74
2024/01/16 07:33:39;;;;;;;138.60;70.40;;;;;;;-0.44;100.00;98943.81;5003011;28;20034;-74
2024/01/16 07:36:06;;;;;;;144.82;69.95;;;;;;;-0.36;100.00;98947.72;5004847;28;20129;-73
2024/01/16 07:38:32;;;;;;;129.65;71.78;;;;;;;-0.29;100.00;98951.59;5007751;28;20030;-73
2024/01/16 07:40:58;;;;;;;143.45;72.53;;;;;;;-0.19;100.00;98952.75;5010105;28;20038;-73
2024/01/16 07:43:23;;;;;;;146.13;71.63;;;;;;;-0.18;100.00;98959.63;5009495;28;20029;-73
2024/01/16 07:45:49;;;;;;;135.25;69.35;;;;;;;-0.21;100.00;98973.59;5008983;28;20427;-73
2024/01/16 07:48:14;;;;;;;140.07;72.13;;;;;;;-0.17;100.00;98979.41;5008778;28;20484;-73
2024/01/16 07:50:40;;;;;;;155.48;72.03;;;;;;;-0.20;100.00;98982.19;5010068;28;20030;-75
2024/01/16 07:53:05;;;;;;;131.95;70.60;;;;;;;-0.09;100.00;98985.00;5023994;28;20033;-74
2024/01/16 07:55:31;;;;;;;145.30;74.70;;;;;;;-0.10;100.00;98994.53;5009649;28;20140;-74
2024/01/16 07:57:56;;;;;;;156.55;72.15;;;;;;;-0.20;100.00;99001.19;4992285;28;20510;-72
2024/01/16 08:00:22;;;;;;;133.07;67.65;;;;;;;-0.11;100.00;98999.81;5010804;28;20132;-74
2024/01/16 08:02:48;;;;;;;114.13;66.55;;;;;;;-0.05;100.00;99017.59;5010251;28;20033;-73
2024/01/16 08:05:14;;;;;;;127.00;64.60;;;;;;;-0.30;100.00;99017.38;5010552;28;20042;-73
2024/01/16 08:07:43;;;;;;;121.28;66.82;;;;;;;-0.10;100.00;99012.69;5008910;28;20135;-74
2024/01/16 08:10:08;;;;;;;114.53;62.70;;;;;;;-0.02;100.00;99017.44;5012284;28;20556;-74
2024/01/16 08:12:34;;;;;;;118.22;64.35;;;;;;;-0.03;100.00;99013.16;5002279;28;20030;-73
2024/01/16 08:14:59;;;;;;;115.45;62.05;;;;;;;-0.05;100.00;99012.41;5007686;28;20383;-74
2024/01/16 08:17:25;;;;;;;113.90;61.72;;;;;;;0.00;100.00;99020.78;5009961;28;20493;-73
2024/01/16 08:19:50;;;;;;;112.93;60.63;;;;;;;-0.02;100.00;99022.63;5010204;28;20075;-74
2024/01/16 08:22:16;;;;;;;121.63;60.72;;;;;;;-0.03;100.00;99036.50;5010058;28;20045;-72
2024/01/16 08:24:42;;;;;;;137.32;58.65;;;;;;;-0.18;100.00;99034.81;5008822;28;20121;-74
2024/01/16 08:27:07;;;;;;;112.82;61.35;;;;;;;-0.09;100.00;99053.25;5007465;28;20122;-74
2024/01/16 08:29:33;;;;;;;116.00;61.65;;;;;;;-0.15;100.00;99048.44;5009675;28;20026;-75
2024/01/16 08:31:58;;;;;;;107.85;61.10;;;;;;;0.02;100.00;99060.41;5005807;28;20037;-75
2024/01/16 08:34:24;;;;;;;109.75;62.15;;;;;;;0.14;100.00;99053.69;5009802;28;20053;-73
2024/01/16 08:36:49;;;;;;;111.28;61.25;;;;;;;0.18;100.00;99050.81;5010175;28;20034;-73
2024/01/16 08:39:16;;;;;;;110.38;60.25;;;;;;;0.12;100.00;99050.38;5022173;28;20048;-73
2024/01/16 08:41:42;;;;;;;111.40;61.53;;;;;;;0.13;100.00;99052.00;5007995;28;20030;-73
2024/01/16 08:44:07;;;;;;;106.22;60.08;;;;;;;-0.01;100.00;99065.81;5008353;28;20026;-73
2024/01/16 08:46:32;;;;;;;104.63;60.63;;;;;;;-0.10;100.00;99074.09;5006458;28;20033;-74
2024/01/16 08:48:58;;;;;;;98.43;59.00;;;;;;;0.04;100.00;99088.88;5008406;28;20037;-72
2024/01/16 08:51:23;;;;;;;107.10;61.72;;;;;;;0.22;100.00;99098.19;5007523;28;20046;-74
2024/01/16 08:53:48;;;;;;;105.78;58.70;;;;;;;0.30;100.00;99094.19;5008829;28;20054;-73
2024/01/16 08:56:14;;;;;;;103.03;60.83;;;;;;;0.28;100.00;99093.47;5012072;28;20183;-73
2024/01/16 08:58:40;;;;;;;100.10;57.65;;;;;;;0.26;100.00;99100.50;5009153;28;20026;-74
2024/01/16 09:01:05;;;;;;;95.20;55.75;;;;;;;-0.05;100.00;99095.41;5007881;28;20030;-74
2024/01/16 09:03:34;;;;;;;99.80;57.78;;;;;;;0.02;100.00;99112.28;5008911;28;20343;-74
2024/01/16 09:06:00;;;;;;;98.10;58.45;;;;;;;0.23;100.00;99105.88;5007366;28;20038;-75
2024/01/16 09:08:26;;;;;;;99.80;58.95;;;;;;;0.23;100.00;99110.25;5009019;28;20186;-74
2024/01/16 09:10:52;;;;;;;101.43;57.50;;;;;;;0.07;100.00;99110.28;5007495;28;20038;-73
2024/01/16 09:13:20;;;;;;;97.68;58.85;;;;;;;0.08;100.00;99122.31;5008409;28;20026;-74
2024/01/16 09:15:49;;;;;;;94.93;56.70;;;;;;;0.15;100.00;99123.66;5008694;28;20045;-74
2024/01/16 09:18:15;;;;;;;97.15;57.78;;;;;;;0.04;100.00;99128.63;5006974;28;20034;-75
2024/01/16 09:20:42;;;;;;;105.75;58.80;;;;;;;0.08;100.00;99140.47;5006559;28;20378;-73
2024/01/16 09:23:08;;;;;;;104.75;60.70;;;;;;;0.06;100.00;99134.53;5008416;28;20068;-73
2024/01/16 09:25:34;;;;;;;98.90;59.92;;;;;;;0.22;100.00;99135.34;5007046;28;20030;-74
2024/01/16 09:28:00;;;;;;;97.40;59.00;;;;;;;0.28;100.00;99140.19;5023431;28;20044;-75
2024/01/16 09:30:26;;;;;;;98.10;59.13;;;;;;;0.23;100.00;99142.22;5008518;28;20029;-75
2024/01/16 09:32:51;;;;;;;102.80;59.25;;;;;;;0.18;100.00;99149.41;5011950;28;20030;-75
2024/01/16 09:35:17;;;;;;;106.05;59.75;;;;;;;0.17;100.00;99147.75;5012000;28;20117;-73
2024/01/16 09:37:42;;;;;;;102.45;60.13;;;;;;;0.13;100.00;99156.63;5012238;28;20030;-74
2024/01/16 09:40:08;;;;;;;105.35;62.00;;;;;;;0.31;100.00;99165.09;5011589;28;20038;-74
2024/01/16 09:42:34;;;;;;;101.38;63.63;;;;;;;0.36;100.00;99171.72;5011699;28;20034;-73
2024/01/16 09:45:03;;;;;;;96.80;60.15;;;;;;;0.51;100.00;99171.75;5012093;28;20390;-75
2024/01/16 09:47:31;;;;;;;102.90;62.30;;;;;;;0.43;100.00;99176.53;5012001;28;20522;-74
2024/01/16 09:49:59;;;;;;;103.28;64.32;;;;;;;0.57;100.00;99171.41;5011750;28;20034;-74
2024/01/16 09:52:25;;;;;;;109.32;66.35;;;;;;;0.62;100.00;99179.75;5012180;28;20029;-74
2024/01/16 09:54:50;;;;;;;105.47;64.78;;;;;;;0.58;100.00;99173.91;5011686;28;20106;-73
2024/01/16 09:57:20;;;;;;;113.05;68.30;;;;;;;0.58;100.00;99186.06;5011521;28;20152;-73
2024/01/16 09:59:46;;;;;;;112.03;64.70;;;;;;;0.46;100.00;99184.16;5008333;28;20044;-75
2024/01/16 10:02:14;;;;;;;108.63;62.28;;;;;;;0.53;100.00;99182.91;5011559;28;20045;-73
2024/01/16 10:04:41;;;;;;;109.35;64.75;;;;;;;0.61;100.00;99185.88;5009189;28;20046;-73
2024/01/16 10:07:09;;;;;;;101.32;61.45;;;;;;;0.40;100.00;99191.41;5012294;28;20050;-74
2024/01/16 10:09:35;;;;;;;101.38;59.72;;;;;;;0.40;100.00;99186.19;5011447;28;20033;-74
2024/01/16 10:12:01;;;;;;;103.50;61.67;;;;;;;0.53;100.00;99180.31;5009623;28;20394;-75
2024/01/16 10:14:27;;;;;;;107.47;61.78;;;;;;;0.70;100.00;99182.75;5008206;28;20128;-74
2024/01/16 10:17:12;;;;;;;106.90;61.40;;;;;;;0.76;100.00;99183.22;5011392;28;20045;-72
2024/01/16 10:19:49;;;;;;;105.72;60.95;;;;;;;0.83;100.00;99178.47;5008901;28;20038;-73
2024/01/16 10:22:20;;;;;;;102.35;59.78;;;;;;;0.83;100.00;99176.72;5011530;28;20514;-73
2024/01/16 10:24:46;;;;;;;103.82;60.35;;;;;;;0.88;100.00;99181.66;5001839;28;20033;-74
2024/01/16 10:27:16;;;;;;;103.50;60.25;;;;;;;0.99;100.00;99189.66;5001227;28;20049;-73
2024/01/16 10:29:55;;;;;;;103.40;59.47;;;;;;;0.96;100.00;99186.38;5011515;28;20037;-74
2024/01/16 10:32:31;;;;;;;106.85;60.17;;;;;;;1.00;100.00;99186.09;5011395;28;20383;-74
2024/01/16 10:35:17;;;;;;;104.03;61.63;;;;;;;0.98;100.00;99193.16;5009742;28;20398;-74
2024/01/16 10:37:45;;;;;;;103.40;60.25;;;;;;;1.04;100.00;99203.19;5009362;28;20045;-74
2024/01/16 10:40:15;;;;;;;100.70;61.20;;;;;;;1.11;100.00;99201.91;5011020;28;20113;-74
2024/01/16 10:42:40;;;;;;;104.88;62.60;;;;;;;1.16;100.00;99202.47;4993669;28;20042;-74
2024/01/16 10:45:06;;;;;;;111.18;65.03;;;;;;;1.11;100.00;99207.09;5010480;28;20042;-74
2024/01/16 10:47:36;;;;;;;110.18;64.07;;;;;;;1.15;100.00;99208.59;5010905;28;20056;-75
2024/01/16 10:50:05;;;;;;;104.97;64.07;;;;;;;1.18;100.00;99204.94;5017743;28;20108;-74
2024/01/16 10:52:33;;;;;;;105.32;62.92;;;;;;;1.25;100.00;99195.84;5007844;28;20488;-73
2024/01/16 10:55:00;;;;;;;107.40;65.40;;;;;;;1.29;100.00;99193.94;5007076;28;20398;-75
2024/01/16 10:57:26;;;;;;;99.95;61.22;;;;;;;1.32;100.00;99196.31;5011170;28;20498;-75
2024/01/16 11:00:04;;;;;;;105.43;63.78;;;;;;;1.35;100.00;99196.16;5010671;28;20026;-75
2024/01/16 11:03:04;;;;;;;100.38;63.20;;;;;;;1.43;100.00;99199.09;5007398;28;20026;-74